Weather at Bunyip Airport

Public forecast

Using degrees Celsius for public forecast. Weather courtesy of forecast.io.

Closest aviation weather report (METAR) to Bunyip Airport

Closest report is Melbourne Essendon Airport, 43.8 nm (81.1 km) WNW. Retrieved 2020/10/24 05:13 UTC (0 seconds ago):

YMEN 240513Z AUTO 18018G28KT 9999 // SCT020 SCT026 BKN032 13/08 Q1009

Closest aviation forecast (TAF) to Bunyip Airport

Closest forecast is Melbourne International Airport, 47.7 nm (88.3 km) WNW. Retrieved 2020-10-24 00:00 UTC (5 hours ago):

TAF YMML 232305Z 2400/2506 21014KT 7000 RA SCT005 BKN020 BECMG 2400/2401 19015KT 9999 -SHRA SCT008 BKN020 FM240200 19020G30KT 9999 -SHRA BKN030 FM240800 20014KT 9999 -SHRA FEW020 BKN025 FM242200 17015G25KT 9999 NSW SCT030 BECMG 2500/2502 16015G25KT 9999 -SHRA BKN025 TEMPO 2400/2401 3000 RA BKN003